createdAt,value
2023-04-01T00:01:06.131Z,100.00
2023-04-01T00:03:36.494Z,100.00
2023-04-01T00:06:05.756Z,100.00
2023-04-01T00:08:33.909Z,100.00
2023-04-01T00:11:02.304Z,100.00
2023-04-01T00:13:31.416Z,100.00
2023-04-01T00:16:00.203Z,100.00
2023-04-01T00:18:28.628Z,100.00
2023-04-01T00:20:56.767Z,100.00
2023-04-01T00:23:26.566Z,100.00
2023-04-01T00:25:54.459Z,100.00
2023-04-01T00:28:22.756Z,100.00
2023-04-01T00:30:51.091Z,100.00
2023-04-01T00:33:21.401Z,100.00
2023-04-01T00:36:28.072Z,100.00
2023-04-01T00:39:00.125Z,100.00
2023-04-01T00:41:29.415Z,100.00
2023-04-01T00:44:19.424Z,100.00
2023-04-01T00:46:48.605Z,100.00
2023-04-01T00:49:18.095Z,100.00
2023-04-01T00:51:48.984Z,100.00
2023-04-01T00:54:17.356Z,100.00
2023-04-01T00:57:00.512Z,100.00
2023-04-01T00:59:31.748Z,100.00
2023-04-01T01:02:01.255Z,100.00
2023-04-01T01:04:31.284Z,100.00
2023-04-01T01:07:05.630Z,100.00
2023-04-01T01:10:05.238Z,100.00
2023-04-01T01:13:06.971Z,100.00
2023-04-01T01:15:48.434Z,100.00
2023-04-01T01:18:16.425Z,100.00
2023-04-01T01:21:22.670Z,100.00
2023-04-01T01:24:17.496Z,100.00
2023-04-01T01:27:01.864Z,100.00
2023-04-01T01:29:58.466Z,100.00
2023-04-01T01:33:00.695Z,100.00
2023-04-01T01:35:41.373Z,100.00
2023-04-01T01:38:18.230Z,100.00
2023-04-01T01:40:54.917Z,100.00
2023-04-01T01:43:27.633Z,100.00
2023-04-01T01:45:58.498Z,100.00
2023-04-01T01:48:28.290Z,100.00
2023-04-01T01:50:57.131Z,100.00
2023-04-01T01:53:25.417Z,100.00
2023-04-01T01:55:56.281Z,100.00
2023-04-01T01:58:26.737Z,100.00
2023-04-01T02:01:04.318Z,100.00
2023-04-01T02:03:35.697Z,100.00
2023-04-01T02:06:04.468Z,100.00
2023-04-01T02:08:37.633Z,100.00
2023-04-01T02:11:10.922Z,100.00
2023-04-01T02:13:46.923Z,100.00
2023-04-01T02:16:30.992Z,100.00
2023-04-01T02:19:00.598Z,100.00
2023-04-01T02:21:32.414Z,100.00
2023-04-01T02:24:01.803Z,100.00
2023-04-01T02:26:33.671Z,100.00
2023-04-01T02:29:01.741Z,100.00
2023-04-01T02:31:30.400Z,100.00
2023-04-01T02:33:59.017Z,100.00
2023-04-01T02:36:27.291Z,100.00
2023-04-01T02:38:56.328Z,100.00
2023-04-01T02:41:24.291Z,100.00
2023-04-01T02:43:53.092Z,100.00
2023-04-01T02:46:21.215Z,100.00
2023-04-01T02:48:49.497Z,100.00
2023-04-01T02:51:18.578Z,100.00
2023-04-01T02:53:46.973Z,100.00
2023-04-01T02:56:16.374Z,100.00
2023-04-01T02:58:45.074Z,100.00
2023-04-01T03:01:13.265Z,100.00
2023-04-01T03:03:41.507Z,100.00
2023-04-01T03:06:12.561Z,100.00
2023-04-01T03:08:41.045Z,100.00
2023-04-01T03:11:10.956Z,100.00
2023-04-01T03:13:45.034Z,100.00
2023-04-01T03:16:14.290Z,100.00
2023-04-01T03:18:42.536Z,100.00
2023-04-01T03:21:19.525Z,100.00
2023-04-01T03:23:47.633Z,100.00
2023-04-01T03:26:16.174Z,100.00
2023-04-01T03:28:44.960Z,100.00
2023-04-01T03:31:14.385Z,100.00
2023-04-01T03:33:46.561Z,100.00
2023-04-01T03:36:15.270Z,100.00
2023-04-01T03:38:46.303Z,100.00
2023-04-01T03:41:18.506Z,100.00
2023-04-01T03:43:47.129Z,100.00
2023-04-01T03:46:20.759Z,100.00
2023-04-01T03:48:48.864Z,100.00
2023-04-01T03:51:17.996Z,100.00
2023-04-01T03:53:50.049Z,100.00
2023-04-01T03:56:18.481Z,100.00
2023-04-01T03:58:48.984Z,100.00
2023-04-01T04:01:19.184Z,100.00
2023-04-01T04:03:56.791Z,100.00
2023-04-01T04:06:26.234Z,100.00
2023-04-01T04:08:54.463Z,100.00
2023-04-01T04:11:23.904Z,100.00
2023-04-01T04:13:58.366Z,100.00
2023-04-01T04:16:27.269Z,100.00
2023-04-01T04:19:00.335Z,100.00
2023-04-01T04:21:28.481Z,100.00
2023-04-01T04:23:57.504Z,100.00
2023-04-01T04:26:30.416Z,100.00
2023-04-01T04:29:01.314Z,100.00
2023-04-01T04:31:29.979Z,100.00
2023-04-01T04:34:01.976Z,100.00
2023-04-01T04:36:31.613Z,100.00
2023-04-01T04:39:03.119Z,100.00
2023-04-01T04:41:31.981Z,100.00
2023-04-01T04:44:03.106Z,100.00
2023-04-01T04:46:31.655Z,100.00
2023-04-01T04:49:07.235Z,100.00
2023-04-01T04:51:39.322Z,100.00
2023-04-01T04:54:08.196Z,100.00
2023-04-01T04:56:53.741Z,100.00
2023-04-01T04:59:22.364Z,100.00
2023-04-01T05:01:58.005Z,100.00
2023-04-01T05:04:27.211Z,100.00
2023-04-01T05:06:55.484Z,100.00
2023-04-01T05:09:26.335Z,100.00
2023-04-01T05:11:54.809Z,100.00
2023-04-01T05:14:23.689Z,100.00
2023-04-01T05:17:03.409Z,100.00
2023-04-01T05:19:31.717Z,100.00
2023-04-01T05:22:00.801Z,100.00
2023-04-01T05:24:29.392Z,100.00
2023-04-01T05:26:59.002Z,100.00
2023-04-01T05:29:27.326Z,100.00
2023-04-01T05:32:01.536Z,100.00
2023-04-01T05:34:30.909Z,100.00
2023-04-01T05:36:59.118Z,100.00
2023-04-01T05:39:27.711Z,100.00
2023-04-01T05:41:56.337Z,100.00
2023-04-01T05:44:24.423Z,100.00
2023-04-01T05:47:15.932Z,100.00
2023-04-01T05:49:43.815Z,100.00
2023-04-01T05:52:12.447Z,100.00
2023-04-01T05:54:40.849Z,100.00
2023-04-01T05:57:09.476Z,100.00
2023-04-01T05:59:37.800Z,100.00
2023-04-01T06:02:05.954Z,100.00
2023-04-01T06:04:38.489Z,100.00
2023-04-01T06:07:13.091Z,100.00
2023-04-01T06:09:41.809Z,100.00
2023-04-01T06:12:19.800Z,100.00
2023-04-01T06:15:21.964Z,100.00
2023-04-01T06:18:37.133Z,100.00
2023-04-01T06:21:14.841Z,100.00
2023-04-01T06:24:37.905Z,100.00
2023-04-01T06:27:38.347Z,100.00
2023-04-01T06:30:27.205Z,100.00
2023-04-01T06:33:20.560Z,100.00
2023-04-01T06:36:27.078Z,100.00
2023-04-01T06:39:11.067Z,100.00
2023-04-01T06:41:52.072Z,100.00
2023-04-01T06:44:56.249Z,100.00
2023-04-01T06:47:53.627Z,100.00
2023-04-01T06:50:49.132Z,100.00
2023-04-01T06:53:39.185Z,100.00
2023-04-01T06:56:48.049Z,100.00
2023-04-01T06:59:26.654Z,100.00
2023-04-01T07:02:04.985Z,100.00
2023-04-01T07:04:35.843Z,100.00
2023-04-01T07:07:21.288Z,100.00
2023-04-01T07:10:00.263Z,100.00
2023-04-01T07:12:37.523Z,100.00
2023-04-01T07:15:52.947Z,100.00
2023-04-01T07:18:55.680Z,100.00
2023-04-01T07:21:59.016Z,100.00
2023-04-01T07:24:38.162Z,100.00
2023-04-01T07:27:13.877Z,100.00
2023-04-01T07:29:43.436Z,100.00
2023-04-01T07:32:24.972Z,100.00
2023-04-01T07:35:16.505Z,100.00
2023-04-01T07:38:11.503Z,100.00
2023-04-01T07:40:56.360Z,100.00
2023-04-01T07:44:16.240Z,100.00
2023-04-01T07:46:55.577Z,100.00
2023-04-01T07:50:01.838Z,100.00
2023-04-01T07:52:34.017Z,100.00
2023-04-01T07:55:20.141Z,100.00
2023-04-01T07:58:07.432Z,100.00
2023-04-01T08:00:52.345Z,100.00
2023-04-01T08:03:54.600Z,100.00
2023-04-01T08:06:45.547Z,100.00
2023-04-01T08:09:32.598Z,100.00
2023-04-01T08:12:54.117Z,100.00
2023-04-01T08:15:53.749Z,100.00
2023-04-01T08:19:29.642Z,100.00
2023-04-01T08:22:05.726Z,100.00
2023-04-01T08:24:47.917Z,100.00
2023-04-01T08:27:43.115Z,100.00
2023-04-01T08:30:22.651Z,100.00
2023-04-01T08:33:21.181Z,100.00
2023-04-01T08:36:16.169Z,100.00
2023-04-01T08:39:11.807Z,100.00
2023-04-01T08:42:00.938Z,100.00
2023-04-01T08:45:03.252Z,100.00
2023-04-01T08:47:56.730Z,100.00
2023-04-01T08:51:01.242Z,100.00
2023-04-01T08:53:47.896Z,100.00
2023-04-01T08:56:42.179Z,100.00
2023-04-01T08:59:22.627Z,100.00
2023-04-01T09:01:57.645Z,100.00
2023-04-01T09:05:33.474Z,100.00
2023-04-01T09:08:36.822Z,100.00
2023-04-01T09:11:14.312Z,100.00
2023-04-01T09:14:23.965Z,100.00
2023-04-01T09:17:18.136Z,100.00
2023-04-01T09:20:12.313Z,100.00
2023-04-01T09:22:43.889Z,100.00
2023-04-01T09:25:41.097Z,100.00
2023-04-01T09:28:21.923Z,100.00
2023-04-01T09:31:28.998Z,100.00
2023-04-01T09:34:29.404Z,100.00
2023-04-01T09:37:31.644Z,100.00
2023-04-01T09:40:17.012Z,100.00
2023-04-01T09:43:02.279Z,100.00
2023-04-01T09:46:11.324Z,100.00
2023-04-01T09:48:54.918Z,100.00
2023-04-01T09:51:41.481Z,100.00
2023-04-01T09:54:43.004Z,100.00
2023-04-01T09:57:38.983Z,100.00
2023-04-01T10:00:50.130Z,100.00
2023-04-01T10:03:42.549Z,100.00
2023-04-01T10:06:18.863Z,100.00
2023-04-01T10:09:11.756Z,100.00
2023-04-01T10:11:59.009Z,100.00
2023-04-01T10:15:13.034Z,100.00
2023-04-01T10:18:06.233Z,100.00
2023-04-01T10:20:56.722Z,100.00
2023-04-01T10:26:08.580Z,100.00
2023-04-01T10:28:38.783Z,100.00
2023-04-01T10:31:43.454Z,100.00
2023-04-01T10:34:33.402Z,100.00
2023-04-01T10:37:33.964Z,100.00
2023-04-01T10:40:35.922Z,100.00
2023-04-01T10:43:52.359Z,100.00
2023-04-01T10:46:23.133Z,100.00
2023-04-01T10:49:24.343Z,100.00
2023-04-01T10:52:44.151Z,100.00
2023-04-01T10:55:51.827Z,100.00
2023-04-01T10:59:01.930Z,100.00
2023-04-01T11:02:11.950Z,100.00
2023-04-01T11:05:27.378Z,100.00
2023-04-01T11:08:39.668Z,100.00
2023-04-01T11:11:23.124Z,100.00
2023-04-01T11:13:57.047Z,100.00
2023-04-01T11:16:43.778Z,100.00
2023-04-01T11:19:51.466Z,100.00
2023-04-01T11:22:35.221Z,100.00
2023-04-01T11:25:06.511Z,100.00
2023-04-01T11:27:57.584Z,100.00
2023-04-01T11:30:40.848Z,100.00
2023-04-01T11:33:09.218Z,100.00
2023-04-01T11:36:02.372Z,100.00
2023-04-01T11:38:34.526Z,100.00
2023-04-01T11:41:46.233Z,100.00
2023-04-01T11:44:36.421Z,100.00
2023-04-01T11:47:23.144Z,100.00
2023-04-01T11:50:13.435Z,100.00
2023-04-01T11:53:06.460Z,100.00
2023-04-01T11:55:53.769Z,100.00
2023-04-01T11:58:46.588Z,100.00
2023-04-01T12:01:26.606Z,100.00
2023-04-01T12:03:54.814Z,100.00
2023-04-01T12:06:50.715Z,100.00
2023-04-01T12:09:34.233Z,96.93
2023-04-01T12:12:14.253Z,91.65
2023-04-01T12:15:01.049Z,89.73
2023-04-01T12:17:41.662Z,89.38
2023-04-01T12:20:12.859Z,90.51
2023-04-01T12:23:06.327Z,91.75
2023-04-01T12:25:44.060Z,90.40
2023-04-01T12:28:15.581Z,87.18
2023-04-01T12:30:46.578Z,87.97
2023-04-01T12:33:26.809Z,88.99
2023-04-01T12:36:14.033Z,90.61
2023-04-01T12:38:46.436Z,92.58
2023-04-01T12:41:26.492Z,93.56
2023-04-01T12:44:31.436Z,95.60
2023-04-01T12:47:15.135Z,96.07
2023-04-01T12:50:01.626Z,94.14
2023-04-01T12:52:41.909Z,92.71
2023-04-01T12:55:10.068Z,91.38
2023-04-01T12:57:57.193Z,91.49
2023-04-01T13:00:27.900Z,93.28
2023-04-01T13:03:38.670Z,94.21
2023-04-01T13:06:25.356Z,93.89
2023-04-01T13:09:20.124Z,91.45
2023-04-01T13:12:01.063Z,93.91
2023-04-01T13:14:38.775Z,95.23
2023-04-01T13:17:18.998Z,96.66
2023-04-01T13:20:06.435Z,97.72
2023-04-01T13:23:02.304Z,99.12
2023-04-01T13:26:14.469Z,100.00
2023-04-01T13:29:04.561Z,100.00
2023-04-01T13:31:54.760Z,100.00
2023-04-01T13:34:35.112Z,100.00
2023-04-01T13:37:31.961Z,100.00
2023-04-01T13:40:20.481Z,100.00
2023-04-01T13:42:50.082Z,100.00
2023-04-01T13:45:23.681Z,99.40
2023-04-01T13:48:01.616Z,96.90
2023-04-01T13:50:29.977Z,95.21
2023-04-01T13:53:25.771Z,94.57
2023-04-01T13:56:19.257Z,91.42
2023-04-01T13:58:54.737Z,91.54
2023-04-01T14:01:29.854Z,91.00
2023-04-01T14:04:20.841Z,89.73
2023-04-01T14:07:00.154Z,89.08
2023-04-01T14:10:16.180Z,88.16
2023-04-01T14:13:00.152Z,84.45
2023-04-01T14:15:55.539Z,84.07
2023-04-01T14:18:52.151Z,84.32
2023-04-01T14:21:58.022Z,83.60
2023-04-01T14:24:41.134Z,83.18
2023-04-01T14:27:38.190Z,81.11
2023-04-01T14:30:15.458Z,78.72
2023-04-01T14:33:07.411Z,77.15
2023-04-01T14:35:39.329Z,77.26
2023-04-01T14:38:13.808Z,77.53
2023-04-01T14:41:13.006Z,78.54
2023-04-01T14:43:48.075Z,79.28
2023-04-01T14:46:33.596Z,79.74
2023-04-01T14:49:21.794Z,80.71
2023-04-01T14:51:49.879Z,81.34
2023-04-01T14:54:42.168Z,81.60
2023-04-01T14:57:25.223Z,82.55
2023-04-01T14:59:55.006Z,83.62
2023-04-01T15:02:38.487Z,84.49
2023-04-01T15:05:27.328Z,85.62
2023-04-01T15:08:22.006Z,86.93
2023-04-01T15:10:54.956Z,88.12
2023-04-01T15:13:23.320Z,88.57
2023-04-01T15:16:13.133Z,89.09
2023-04-01T15:18:51.366Z,89.81
2023-04-01T15:21:45.032Z,90.15
2023-04-01T15:24:25.575Z,91.01
2023-04-01T15:27:22.727Z,91.64
2023-04-01T15:30:02.191Z,93.47
2023-04-01T15:33:03.730Z,97.73
2023-04-01T15:35:40.916Z,100.00
2023-04-01T15:38:18.545Z,100.00
2023-04-01T15:41:02.779Z,100.00
2023-04-01T15:43:41.821Z,100.00
2023-04-01T15:46:35.021Z,100.00
2023-04-01T15:49:31.586Z,100.00
2023-04-01T15:52:17.482Z,100.00
2023-04-01T15:55:07.540Z,100.00
2023-04-01T15:58:04.356Z,100.00
2023-04-01T16:01:03.436Z,100.00
2023-04-01T16:03:41.973Z,100.00
2023-04-01T16:06:44.945Z,100.00
2023-04-01T16:10:00.199Z,100.00
2023-04-01T16:13:15.083Z,100.00
2023-04-01T16:16:02.714Z,100.00
2023-04-01T16:18:34.441Z,100.00
2023-04-01T16:21:34.168Z,100.00
2023-04-01T16:24:20.390Z,100.00
2023-04-01T16:26:51.185Z,100.00
2023-04-01T16:29:26.010Z,100.00
2023-04-01T16:32:05.798Z,100.00
2023-04-01T16:34:45.714Z,100.00
2023-04-01T16:37:21.261Z,100.00
2023-04-01T16:40:02.501Z,100.00
2023-04-01T16:42:44.326Z,100.00
2023-04-01T16:45:22.567Z,100.00
2023-04-01T16:47:59.109Z,100.00
2023-04-01T16:50:52.795Z,100.00
2023-04-01T16:53:33.506Z,100.00
2023-04-01T16:56:02.465Z,100.00
2023-04-01T16:58:59.617Z,100.00
2023-04-01T17:01:46.763Z,100.00
2023-04-01T17:04:29.663Z,100.00
2023-04-01T17:07:22.612Z,100.00
2023-04-01T17:10:16.013Z,100.00
2023-04-01T17:13:23.437Z,100.00
2023-04-01T17:16:11.728Z,100.00
2023-04-01T17:18:54.031Z,100.00
2023-04-01T17:22:03.008Z,100.00
2023-04-01T17:24:58.896Z,100.00
2023-04-01T17:27:27.583Z,100.00
2023-04-01T17:30:08.082Z,100.00
2023-04-01T17:33:03.869Z,100.00
2023-04-01T17:35:52.852Z,100.00
2023-04-01T17:38:44.047Z,100.00
2023-04-01T17:41:21.835Z,100.00
2023-04-01T17:43:54.553Z,100.00
2023-04-01T17:46:31.980Z,100.00
2023-04-01T17:49:39.675Z,100.00
2023-04-01T17:52:20.872Z,100.00
2023-04-01T17:54:55.136Z,100.00
2023-04-01T17:58:01.878Z,100.00
2023-04-01T18:00:54.155Z,100.00
2023-04-01T18:04:01.753Z,100.00
2023-04-01T18:06:52.911Z,100.00
2023-04-01T18:09:35.022Z,100.00
2023-04-01T18:12:06.387Z,100.00
2023-04-01T18:14:51.396Z,100.00
2023-04-01T18:17:27.064Z,100.00
2023-04-01T18:20:11.399Z,100.00
2023-04-01T18:22:54.786Z,100.00
2023-04-01T18:25:38.423Z,100.00
2023-04-01T18:28:28.860Z,100.00
2023-04-01T18:31:03.315Z,100.00
2023-04-01T18:33:38.516Z,100.00
2023-04-01T18:36:20.707Z,100.00
2023-04-01T18:38:57.272Z,100.00
2023-04-01T18:41:35.946Z,100.00
2023-04-01T18:44:23.329Z,100.00
2023-04-01T18:47:01.265Z,100.00
2023-04-01T18:50:07.421Z,100.00
2023-04-01T18:52:37.873Z,100.00
2023-04-01T18:55:05.881Z,100.00
2023-04-01T18:57:47.338Z,100.00
2023-04-01T19:00:17.337Z,100.00
2023-04-01T19:02:56.450Z,100.00
2023-04-01T19:05:26.178Z,100.00
2023-04-01T19:07:57.447Z,100.00
2023-04-01T19:10:34.968Z,100.00
2023-04-01T19:13:25.501Z,100.00
2023-04-01T19:16:24.826Z,100.00
2023-04-01T19:19:20.473Z,100.00
2023-04-01T19:22:47.121Z,100.00
2023-04-01T19:25:37.783Z,100.00
2023-04-01T19:28:36.113Z,100.00
2023-04-01T19:31:28.274Z,100.00
2023-04-01T19:34:35.911Z,100.00
2023-04-01T19:37:28.682Z,100.00
2023-04-01T19:39:59.640Z,100.00
2023-04-01T19:42:50.164Z,100.00
2023-04-01T19:45:34.037Z,100.00
2023-04-01T19:48:27.799Z,100.00
2023-04-01T19:51:07.967Z,100.00
2023-04-01T19:53:38.949Z,100.00
2023-04-01T19:56:08.878Z,100.00
2023-04-01T19:58:46.485Z,100.00
2023-04-01T20:01:19.840Z,100.00
2023-04-01T20:03:57.624Z,100.00
2023-04-01T20:06:51.842Z,100.00
2023-04-01T20:09:49.427Z,100.00
2023-04-01T20:12:43.697Z,100.00
2023-04-01T20:15:26.194Z,100.00
2023-04-01T20:17:56.670Z,100.00
2023-04-01T20:20:28.296Z,100.00
2023-04-01T20:23:07.574Z,100.00
2023-04-01T20:25:48.840Z,100.00
2023-04-01T20:28:20.544Z,100.00
2023-04-01T20:31:14.633Z,100.00
2023-04-01T20:34:09.317Z,100.00
2023-04-01T20:36:39.752Z,100.00
2023-04-01T20:39:31.811Z,100.00
2023-04-01T20:42:16.121Z,100.00
2023-04-01T20:45:10.211Z,100.00
2023-04-01T20:48:04.843Z,100.00
2023-04-01T20:50:42.891Z,100.00
2023-04-01T20:53:49.268Z,100.00
2023-04-01T20:56:17.271Z,100.00
2023-04-01T20:59:07.406Z,100.00
2023-04-01T21:01:40.280Z,100.00
2023-04-01T21:04:45.783Z,100.00
2023-04-01T21:07:26.932Z,100.00
2023-04-01T21:10:10.503Z,100.00
2023-04-01T21:12:54.330Z,100.00
2023-04-01T21:15:41.046Z,100.00
2023-04-01T21:18:45.413Z,100.00
2023-04-01T21:21:20.016Z,100.00
2023-04-01T21:23:59.382Z,100.00
2023-04-01T21:26:53.859Z,100.00
2023-04-01T21:30:13.553Z,100.00
2023-04-01T21:33:00.970Z,100.00
2023-04-01T21:35:32.011Z,100.00
2023-04-01T21:38:41.815Z,100.00
2023-04-01T21:41:42.306Z,100.00
2023-04-01T21:44:29.060Z,100.00
2023-04-01T21:47:17.517Z,100.00
2023-04-01T21:49:45.987Z,100.00
2023-04-01T21:52:21.592Z,100.00
2023-04-01T21:55:32.355Z,100.00
2023-04-01T21:58:09.736Z,100.00
2023-04-01T22:00:49.172Z,100.00
2023-04-01T22:03:27.389Z,100.00
2023-04-01T22:05:56.451Z,100.00
2023-04-01T22:08:49.652Z,100.00
2023-04-01T22:11:33.644Z,100.00
2023-04-01T22:14:08.861Z,100.00
2023-04-01T22:16:40.999Z,100.00
2023-04-01T22:19:21.201Z,100.00
2023-04-01T22:22:02.147Z,100.00
2023-04-01T22:24:42.795Z,100.00
2023-04-01T22:27:14.703Z,100.00
2023-04-01T22:30:04.686Z,100.00
2023-04-01T22:32:48.321Z,100.00
2023-04-01T22:35:20.266Z,100.00
2023-04-01T22:37:54.545Z,100.00
2023-04-01T22:42:37.362Z,100.00
2023-04-01T22:45:08.692Z,100.00
2023-04-01T22:47:58.432Z,100.00
2023-04-01T22:50:41.616Z,100.00
2023-04-01T22:53:12.750Z,100.00
2023-04-01T22:55:53.232Z,100.00
2023-04-01T22:58:28.386Z,100.00
2023-04-01T23:01:01.434Z,100.00
2023-04-01T23:03:32.912Z,100.00
2023-04-01T23:06:03.407Z,100.00
2023-04-01T23:08:47.459Z,100.00
2023-04-01T23:11:21.483Z,100.00
2023-04-01T23:14:09.103Z,100.00
2023-04-01T23:16:40.159Z,100.00
2023-04-01T23:19:17.494Z,100.00
2023-04-01T23:21:47.837Z,100.00
2023-04-01T23:24:35.786Z,100.00
2023-04-01T23:27:12.765Z,100.00
2023-04-01T23:29:41.160Z,100.00
2023-04-01T23:32:19.416Z,100.00
2023-04-01T23:34:56.453Z,100.00
2023-04-01T23:37:24.725Z,100.00
2023-04-01T23:39:57.637Z,100.00
2023-04-01T23:42:34.290Z,100.00
2023-04-01T23:45:22.948Z,100.00
2023-04-01T23:47:53.498Z,100.00
2023-04-01T23:50:24.095Z,100.00
2023-04-01T23:53:00.436Z,100.00
2023-04-01T23:55:33.301Z,100.00
2023-04-01T23:58:16.379Z,100.00
